METAR Data
IDs: Format: Raw Decoded Include TAF

Data at: 2127 UTC 18 Apr 2021

KIMM 182115Z AUTO 21005G11KT 10SM SCT050 SCT065 SCT075 32/19 A2986 RMK AO2 PWINO
KIMM 182055Z AUTO 23007KT 10SM SCT050 SCT065 SCT075 31/19 A2986 RMK AO2 PWINO
KIMM 182035Z AUTO 24010KT 10SM BKN050 BKN065 BKN075 31/19 A2987 RMK AO2 PWINO
KIMM 182015Z AUTO 23008KT 10SM FEW050 SCT070 32/19 A2987 RMK AO2 PWINO
KIMM 181955Z AUTO 23008G14KT 200V270 10SM FEW050 33/19 A2988 RMK AO2 PWINO
KIMM 181935Z AUTO 24010G16KT 10SM FEW055 33/19 A2988 RMK AO2 PWINO
KIMM 181915Z AUTO 23008G17KT 10SM FEW050 FEW060 33/19 A2988 RMK AO2 PWINO
KIMM 181855Z AUTO 21010G15KT 10SM SCT050 SCT055 SCT070 33/19 A2989 RMK AO2 PWINO
KIMM 181835Z AUTO 21007G14KT 180V240 10SM SCT049 SCT060 SCT070 33/20 A2990 RMK AO2 PWINO
KIMM 181815Z AUTO 23009G15KT 10SM SCT046 SCT060 33/20 A2990 RMK AO2 PWINO
KIMM 181755Z AUTO 21007G14KT 170V240 10SM SCT046 BKN060 32/20 A2991 RMK AO2 PWINO
KIMM 181735Z AUTO 19007G14KT 160V220 10SM SCT044 SCT050 BKN065 32/20 A2991 RMK AO2 PWINO
KIMM 181715Z AUTO 22006G13KT 10SM FEW046 FEW055 FEW065 33/20 A2992 RMK AO2 PWINO
KIMM 181655Z AUTO 20009G17KT 150V220 10SM FEW045 FEW050 FEW065 32/21 A2993 RMK AO2 PWINO
KIMM 181635Z AUTO VRB05G13KT 10SM FEW036 SCT044 SCT060 32/21 A2993 RMK AO2 PWINO
KIMM 181615Z AUTO 23007KT 200V260 10SM SCT035 BKN043 31/21 A2994 RMK AO2 PWINO
KIMM 181555Z AUTO VRB06G11KT 10SM SCT034 SCT040 SCT046 30/21 A2995 RMK AO2 PWINO
KIMM 181535Z AUTO 17007KT 10SM SCT033 SCT041 30/21 A2995 RMK AO2 PWINO
KIMM 181515Z AUTO 20007KT 10SM FEW031 31/21 A2996 RMK AO2 PWINO
KIMM 181455Z AUTO 21007KT 10SM CLR 30/21 A2996 RMK AO2 PWINO
KIMM 181435Z AUTO VRB05KT 10SM CLR 29/21 A2996 RMK AO2 PWINO
KIMM 181415Z AUTO VRB05KT 10SM CLR 29/21 A2996 RMK AO2 PWINO
KIMM 181355Z AUTO 20006KT 10SM FEW022 FEW039 28/22 A2996 RMK AO2 PWINO
KIMM 181335Z AUTO 16005KT 10SM CLR 27/22 A2997 RMK AO2 PWINO
KIMM 181315Z AUTO 16006KT 10SM CLR 26/22 A2997 RMK AO2 PWINO
KIMM 181255Z AUTO 14005KT 10SM CLR 24/22 A2997 RMK AO2 PWINO
KIMM 181235Z AUTO 16005KT 9SM CLR 23/22 A2996 RMK AO2 PWINO
KIMM 181215Z AUTO 15004KT 7SM FEW043 22/21 A2996 RMK AO2 PWINO
KIMM 181155Z AUTO 00000KT 5SM BR SCT044 21/21 A2996 RMK AO2 PWINO
KIMM 181135Z AUTO 00000KT 5SM BR SCT047 SCT050 21/20 A2995 RMK AO2 PWINO
KIMM 181115Z AUTO 16003KT 5SM BR BKN046 BKN050 21/20 A2995 RMK AO2 PWINO
KIMM 181055Z AUTO 17003KT 6SM BR OVC047 20/20 A2995 RMK AO2 PWINO
KIMM 181035Z AUTO 17003KT 5SM BR FEW033 FEW039 OVC047 20/20 A2994 RMK AO2 PWINO
KIMM 181015Z AUTO 00000KT 5SM BR FEW003 SCT034 BKN039 21/20 A2993 RMK AO2 PWINO
KIMM 180955Z AUTO 00000KT 5SM BR BKN003 OVC045 21/20 A2993 RMK AO2 PWINO
KIMM 180935Z AUTO 17005KT 5SM BR BKN002 OVC044 20/20 A2993 RMK AO2 PWINO
KIMM 180915Z AUTO 15003KT 1/4SM FG BKN001 OVC033 19/19 A2992 RMK AO2 PWINO
KIMM 180855Z AUTO 00000KT 3SM BR FEW030 SCT050 BKN060 19/19 A2992 RMK AO2 PWINO
KIMM 180835Z AUTO 00000KT 2SM BR FEW038 SCT047 BKN055 20/19 A2992 RMK AO2 VIS 1 1/2V5 PWINO
KIMM 180815Z AUTO 00000KT 4SM BR FEW002 BKN048 OVC055 20/19 A2992 RMK AO2 PWINO
KIMM 180755Z AUTO 00000KT 3SM BR FEW002 BKN049 OVC060 20/19 A2992 RMK AO2 PWINO
KIMM 180735Z AUTO 00000KT 3SM BR BKN046 OVC055 20/19 A2993 RMK AO2 PWINO
KIMM 180715Z AUTO 00000KT 6SM BR FEW002 BKN045 OVC055 20/19 A2993 RMK AO2 PWINO
KIMM 180655Z AUTO 00000KT 10SM BKN048 OVC055 20/19 A2993 RMK AO2 PWINO
KIMM 180635Z AUTO 00000KT 10SM OVC046 20/19 A2993 RMK AO2 PWINO
KIMM 180615Z AUTO 00000KT 7SM OVC047 20/20 A2993 RMK AO2 PWINO
KIMM 180555Z AUTO 00000KT 5SM BR OVC047 20/19 A2992 RMK AO2 PWINO
KIMM 180535Z AUTO 00000KT 1/2SM BR SCT027 OVC047 20/19 A2993 RMK AO2 PWINO
KIMM 180515Z AUTO 00000KT 5SM BR FEW028 FEW038 SCT047 20/19 A2993 RMK AO2 PWINO
KIMM 180455Z AUTO 00000KT 5SM BR FEW024 FEW030 BKN039 20/19 A2992 RMK AO2 PWINO
KIMM 180435Z AUTO 00000KT 8SM FEW021 FEW030 SCT040 20/20 A2992 RMK AO2 PWINO
KIMM 180415Z AUTO 00000KT 10SM CLR 20/19 A2992 RMK AO2 PWINO
KIMM 180355Z AUTO 00000KT 7SM FEW041 21/20 A2992 RMK AO2 PWINO
KIMM 180335Z AUTO 00000KT 10SM SCT032 SCT040 22/20 A2992 RMK AO2 PWINO
KIMM 180315Z AUTO 00000KT 10SM FEW027 SCT031 BKN038 22/20 A2992 RMK AO2 PWINO
KIMM 180255Z AUTO 23003KT 10SM SCT030 23/21 A2992 RMK AO2 PWINO
KIMM 180235Z AUTO 00000KT 10SM FEW030 23/21 A2991 RMK AO2 PWINO
KIMM 180215Z AUTO 23003KT 10SM FEW029 FEW036 23/21 A2991 RMK AO2 PWINO
KIMM 180155Z AUTO 24003KT 10SM CLR 23/21 A2991 RMK AO2 PWINO
KIMM 180135Z AUTO 00000KT 10SM FEW027 FEW035 23/21 A2990 RMK AO2 PWINO
KIMM 180115Z AUTO 00000KT 10SM FEW031 24/21 A2990 RMK AO2 PWINO
KIMM 180055Z AUTO 29003KT 10SM FEW032 24/21 A2989 RMK AO2 PWINO
KIMM 180035Z AUTO 26004KT 10SM CLR 25/21 A2989 RMK AO2 PWINO
KIMM 180015Z AUTO 26003KT 10SM CLR 25/20 A2988 RMK AO2 PWINO
KIMM 172355Z AUTO 25005KT 10SM CLR 25/20 A2987 RMK AO2 PWINO
KIMM 172335Z AUTO 25005KT 10SM CLR 26/20 A2987 RMK AO2 PWINO
KIMM 172315Z AUTO 26008KT 10SM FEW036 27/20 A2987 RMK AO2 PWINO
KIMM 172255Z AUTO 27006G13KT 10SM SCT036 28/20 A2987 RMK AO2 PWINO
KIMM 172235Z AUTO 28009G15KT 10SM SCT036 28/20 A2987 RMK AO2 PWINO
KIMM 172215Z AUTO 27007G14KT 240V300 10SM FEW037 29/20 A2986 RMK AO2 PWINO
KIMM 172155Z AUTO 26007G14KT 10SM CLR 29/20 A2986 RMK AO2 PWINO
KIMM 172135Z AUTO 24008G14KT 10SM FEW040 30/19 A2985 RMK AO2 PWINO
KIMM 172115Z AUTO 25008G14KT 10SM CLR 30/19 A2985 RMK AO2 PWINO
KIMM 172055Z AUTO 24010G15KT 10SM CLR 31/19 A2985 RMK AO2 PWINO
KIMM 172035Z AUTO 24010KT 10SM CLR 31/19 A2985 RMK AO2 PWINO
KIMM 172015Z AUTO 25009G16KT 10SM CLR 31/19 A2985 RMK AO2 PWINO
KIMM 171955Z AUTO 25009KT 10SM CLR 31/18 A2986 RMK AO2 PWINO
KIMM 171935Z AUTO 26013G19KT 10SM SCT045 32/19 A2986 RMK AO2 PWINO
KIMM 171915Z AUTO VRB06G13KT 190V280 10SM FEW044 31/19 A2987 RMK AO2 PWINO
KIMM 171855Z AUTO 22008G16KT 200V260 10SM CLR 32/19 A2988 RMK AO2 PWINO
KIMM 171835Z AUTO 24008G15KT 10SM FEW044 31/19 A2989 RMK AO2 PWINO
KIMM 171815Z AUTO 26010G15KT 240V300 10SM SCT042 31/18 A2989 RMK AO2 PWINO
KIMM 171755Z AUTO 26010G17KT 230V290 10SM FEW040 FEW048 31/20 A2990 RMK AO2 PWINO
KIMM 171735Z AUTO 25010G16KT 10SM FEW041 FEW048 31/20 A2990 RMK AO2 PWINO
KIMM 171715Z AUTO 23012KT 10SM FEW039 FEW048 31/20 A2990 RMK AO2 PWINO
KIMM 171655Z AUTO 25013KT 10SM FEW038 FEW048 32/20 A2991 RMK AO2 PWINO
KIMM 171635Z AUTO 25010G16KT 210V270 10SM FEW036 FEW042 31/20 A2991 RMK AO2 PWINO
KIMM 171615Z AUTO 25009KT 10SM FEW037 FEW044 30/21 A2992 RMK AO2 PWINO
KIMM 171555Z AUTO 20007G13KT 170V250 10SM CLR 31/21 A2992 RMK AO2 PWINO
KIMM 171535Z AUTO 24008G16KT 10SM FEW029 FEW034 FEW043 30/20 A2993 RMK AO2 PWINO
KIMM 171515Z AUTO 23004G11KT 10SM FEW027 FEW032 SCT045 28/21 A2993 RMK AO2 PWINO
KIMM 171455Z AUTO VRB06KT 10SM FEW036 FEW048 27/21 A2994 RMK AO2 PWINO
KIMM 171435Z AUTO 25007KT 10SM SCT021 SCT027 28/22 A2994 RMK AO2 PWINO
KIMM 171415Z AUTO 25007KT 10SM SCT018 SCT029 27/22 A2993 RMK AO2 PWINO
KIMM 171355Z AUTO 23006KT 10SM FEW016 26/22 A2993 RMK AO2 PWINO
KIMM 171335Z AUTO VRB05KT 10SM CLR 26/22 A2992 RMK AO2 PWINO
KIMM 171315Z AUTO VRB04KT 9SM CLR 24/22 A2991 RMK AO2 PWINO
KIMM 171255Z AUTO 00000KT 8SM CLR 22/22 A2991 RMK AO2 PWINO
KIMM 171235Z AUTO 00000KT 3SM BR SCT002 21/21 A2991 RMK AO2 PWINO
KIMM 171215Z AUTO 00000KT 1/4SM FG OVC002 20/20 A2990 RMK AO2 PWINO
KIMM 171155Z AUTO 00000KT M1/4SM FG OVC002 20/19 A2989 RMK AO2 PWINO
KIMM 171135Z AUTO 00000KT M1/4SM FG OVC002 19/19 A2989 RMK AO2 PWINO
KIMM 171115Z AUTO 17003KT M1/4SM FG OVC002 19/19 A2988 RMK AO2 PWINO
KIMM 171055Z AUTO 16004KT M1/4SM FG OVC002 19/19 A2988 RMK AO2 PWINO
KIMM 171035Z AUTO 16004KT M1/4SM FG OVC002 19/19 A2988 RMK AO2 PWINO
KIMM 171015Z AUTO 00000KT M1/4SM FG OVC002 19/19 A2988 RMK AO2 PWINO
KIMM 170955Z AUTO 00000KT M1/4SM FG OVC002 19/19 A2987 RMK AO2 PWINO
KIMM 170935Z AUTO 17003KT 1/4SM FG OVC002 19/19 A2986 RMK AO2 PWINO